»·PEaware :: N856CM KVNY-KSNA

N856CM :: KVNY-KSNA

FLIGHT INFORMATION

Flight Status: Arrived
Operator: Privately registered:
United States
More flights under this callsign
Pilot: Jimmy M. (17685)
Aircraft: CESSNA 172 SKYHAWK
(C172)
More flights by this aircraft type
Origin: KVNY Van Nuys
United States
Destination: KSNA John Wayne-Orange Co
United States
More flights between these airports :: More routes between these airports
Route: +COASTAL ROUTE
File this flight plan on PilotEdge
Remarks: CAT 10 Leg 2
Altitude:
(Current/Filed)
3,000ft
Speed:
(Current/Filed)
115kts
Departed: 01-Jan-18 08:07 PM
Arrived: 01-Jan-18 08:47 PM
Distance/Time
Traveled:
17nm/0:39
Distance/Time
To Go:
Arrived

Flight Plot

Page will automatically refresh every two minutes.


Map Options




Map Legend


Flown Route
Filed Route
Departure Airport
Arrival Airport
Navaid (VOR, NDB)
Fix

Horizontal Profiles

Position Reports

Time Latitude Longitude Heading Altitude Ground
Speed
01-Jan-18 20:00 34.217662 -118.493094 74 796ft 0kts
01-Jan-18 20:01 34.217662 -118.493094 74 796ft 0kts
01-Jan-18 20:02 34.217662 -118.493094 74 796ft 0kts
01-Jan-18 20:03 34.217662 -118.493094 74 796ft 0kts
01-Jan-18 20:04 34.217662 -118.493094 74 796ft 0kts
01-Jan-18 20:05 34.217662 -118.493094 74 796ft 0kts
01-Jan-18 20:06 34.217662 -118.493094 74 796ft 0kts
01-Jan-18 20:07 34.217662 -118.493094 74 796ft 0kts
01-Jan-18 20:08 34.217662 -118.493094 74 796ft 0kts
01-Jan-18 20:09 34.218616 -118.492711 1 798ft 6kts
01-Jan-18 20:10 34.218724 -118.492226 80 799ft 0kts
01-Jan-18 20:11 34.218724 -118.492226 80 799ft 0kts
01-Jan-18 20:12 34.218497 -118.491186 176 797ft 0kts
01-Jan-18 20:13 34.211801 -118.490546 171 888ft 85kts
01-Jan-18 20:14 34.191125 -118.498218 257 1926ft 86kts
01-Jan-18 20:15 34.183824 -118.524362 195 2809ft 95kts
01-Jan-18 20:16 34.158826 -118.529273 200 2826ft 109kts
01-Jan-18 20:17 34.132234 -118.519646 80 2968ft 96kts
01-Jan-18 20:18 34.150600 -118.509126 11 3600ft 94kts
01-Jan-18 20:19 34.181563 -118.513670 352 4408ft 98kts
01-Jan-18 20:20 34.208255 -118.520426 350 5051ft 99kts
01-Jan-18 20:21 34.220876 -118.540051 245 5312ft 127kts
01-Jan-18 20:22 34.184885 -118.553858 160 5309ft 119kts
01-Jan-18 20:23 34.158832 -118.541816 154 5309ft 122kts
01-Jan-18 20:24 34.127128 -118.526532 153 5308ft 123kts
01-Jan-18 20:25 34.095704 -118.511271 155 5308ft 121kts
01-Jan-18 20:26 34.064441 -118.495966 154 5308ft 121kts
01-Jan-18 20:27 34.033434 -118.480803 156 5308ft 120kts
01-Jan-18 20:28 34.002352 -118.465617 154 5309ft 121kts
01-Jan-18 20:29 33.971510 -118.450562 154 5308ft 120kts
01-Jan-18 20:30 33.941369 -118.435853 154 5309ft 115kts
01-Jan-18 20:31 33.915830 -118.415642 132 5309ft 109kts
01-Jan-18 20:32 33.893871 -118.390627 132 5307ft 110kts
01-Jan-18 20:33 33.871400 -118.365692 133 5307ft 109kts
01-Jan-18 20:34 33.848972 -118.341085 134 5307ft 109kts
01-Jan-18 20:35 33.826729 -118.316843 133 5307ft 110kts
01-Jan-18 20:36 33.803631 -118.291726 134 5307ft 112kts
01-Jan-18 20:37 33.783957 -118.264711 101 5307ft 103kts
01-Jan-18 20:38 33.776416 -118.232616 101 5159ft 99kts
01-Jan-18 20:39 33.769191 -118.201239 102 4530ft 96kts
01-Jan-18 20:40 33.762082 -118.171139 102 3572ft 93kts
01-Jan-18 20:41 33.755095 -118.141209 101 2831ft 89kts
01-Jan-18 20:42 33.748072 -118.110469 100 2808ft 101kts
01-Jan-18 20:43 33.736792 -118.079608 111 2802ft 98kts
01-Jan-18 20:44 33.724391 -118.048004 110 2323ft 104kts
01-Jan-18 20:45 33.712678 -118.018135 111 2071ft 109kts
01-Jan-18 20:46 33.699829 -117.984930 110 1495ft 108kts
01-Jan-18 20:47 33.687409 -117.953521 112 1306ft 95kts
01-Jan-18 20:48 33.682120 -117.923718 91 1059ft 94kts
01-Jan-18 20:49 33.682836 -117.895536 39 890ft 73kts
01-Jan-18 20:50 33.702425 -117.880122 32 924ft 85kts
01-Jan-18 20:51 33.706515 -117.859353 149 707ft 85kts
01-Jan-18 20:52 33.684916 -117.863005 207 191ft 84kts
01-Jan-18 20:53 33.675955 -117.869728 296 60ft 0kts
01-Jan-18 20:54 33.674746 -117.871250 290 60ft 11kts
01-Jan-18 20:55 33.675234 -117.871752 39 60ft 0kts
01-Jan-18 20:56 33.675234 -117.871752 39 60ft 0kts
01-Jan-18 20:57 33.675234 -117.871752 39 60ft 0kts
01-Jan-18 21:00 33.933667 -118.399070 174 110ft 0kts
01-Jan-18 21:01 33.933667 -118.399070 174 110ft 0kts
01-Jan-18 21:02 33.933667 -118.399070 174 110ft 0kts
01-Jan-18 21:03 33.933667 -118.399070 174 110ft 0kts
01-Jan-18 21:04 33.933667 -118.399070 174 110ft 0kts
01-Jan-18 21:05 33.933667 -118.399070 174 110ft 0kts
01-Jan-18 21:06 33.933667 -118.399070 174 110ft 0kts
01-Jan-18 21:07 33.933667 -118.399070 174 110ft 0kts

Navigation Log

Ident Type
1. KVNY Airport
2. ROUTE Fix
3. KSNA Airport